sensor_id;sensor_type;location;lat;lon;timestamp;pressure;altitude;pressure_sealevel;temperature;humidity
77351;BME280;66420;50.246;14.320;2023-08-20T04:49:37;99967.31;;;20.82;88.18
77351;BME280;66420;50.246;14.320;2023-08-20T04:52:22;99970.59;;;20.87;88.69
77351;BME280;66420;50.246;14.320;2023-08-20T04:55:06;99967.47;;;20.89;86.79
77351;BME280;66420;50.246;14.320;2023-08-20T04:57:52;99975.13;;;20.95;86.82
77351;BME280;66420;50.246;14.320;2023-08-20T05:00:37;99975.56;;;20.97;88.09
77351;BME280;66420;50.246;14.320;2023-08-20T05:03:22;99970.44;;;20.99;88.01
77351;BME280;66420;50.246;14.320;2023-08-20T05:06:07;99976.31;;;20.94;87.46
77351;BME280;66420;50.246;14.320;2023-08-20T05:08:51;99978.72;;;20.96;86.76
77351;BME280;66420;50.246;14.320;2023-08-20T05:11:36;99984.44;;;21.03;86.51
77351;BME280;66420;50.246;14.320;2023-08-20T05:14:22;99991.53;;;21.00;86.26
77351;BME280;66420;50.246;14.320;2023-08-20T05:17:07;99989.84;;;20.96;86.47
77351;BME280;66420;50.246;14.320;2023-08-20T05:19:52;99998.41;;;21.06;86.62
77351;BME280;66420;50.246;14.320;2023-08-20T05:22:36;100004.41;;;21.08;86.56
77351;BME280;66420;50.246;14.320;2023-08-20T05:25:21;99998.78;;;21.05;86.44
77351;BME280;66420;50.246;14.320;2023-08-20T05:28:06;99998.22;;;21.15;85.73
77351;BME280;66420;50.246;14.320;2023-08-20T05:30:56;100007.38;;;21.15;85.23
77351;BME280;66420;50.246;14.320;2023-08-20T05:33:41;100010.22;;;21.19;84.80
77351;BME280;66420;50.246;14.320;2023-08-20T05:36:26;100019.88;;;21.25;84.64
77351;BME280;66420;50.246;14.320;2023-08-20T05:39:12;100019.94;;;21.29;85.13
77351;BME280;66420;50.246;14.320;2023-08-20T05:41:56;100018.31;;;21.28;85.16
77351;BME280;66420;50.246;14.320;2023-08-20T05:44:42;100019.94;;;21.29;86.25
77351;BME280;66420;50.246;14.320;2023-08-20T05:47:26;100024.66;;;21.25;86.70
77351;BME280;66420;50.246;14.320;2023-08-20T05:50:11;100025.56;;;21.32;85.19
77351;BME280;66420;50.246;14.320;2023-08-20T05:52:56;100030.22;;;21.25;86.57
77351;BME280;66420;50.246;14.320;2023-08-20T05:55:41;100036.53;;;21.21;87.83
77351;BME280;66420;50.246;14.320;2023-08-20T05:58:25;100040.31;;;21.13;87.77
77351;BME280;66420;50.246;14.320;2023-08-20T06:01:10;100048.22;;;21.11;88.01
77351;BME280;66420;50.246;14.320;2023-08-20T06:03:55;100040.31;;;21.13;87.18
77351;BME280;66420;50.246;14.320;2023-08-20T06:06:39;100037.09;;;21.11;87.54
77351;BME280;66420;50.246;14.320;2023-08-20T06:09:25;100043.38;;;21.28;86.13
77351;BME280;66420;50.246;14.320;2023-08-20T06:12:09;100051.59;;;21.40;87.12
77351;BME280;66420;50.246;14.320;2023-08-20T06:14:54;100037.00;;;21.27;86.89
77351;BME280;66420;50.246;14.320;2023-08-20T06:17:39;100051.97;;;21.19;87.57
77351;BME280;66420;50.246;14.320;2023-08-20T06:20:24;100049.63;;;21.21;87.54
77351;BME280;66420;50.246;14.320;2023-08-20T06:23:09;100052.31;;;21.17;88.02
77351;BME280;66420;50.246;14.320;2023-08-20T06:25:54;100051.09;;;21.34;86.73
77351;BME280;66420;50.246;14.320;2023-08-20T06:28:39;100057.59;;;21.42;87.99
77351;BME280;66420;50.246;14.320;2023-08-20T06:31:23;100059.25;;;21.46;86.83
77351;BME280;66420;50.246;14.320;2023-08-20T06:34:08;100056.13;;;21.48;86.85
77351;BME280;66420;50.246;14.320;2023-08-20T06:36:53;100050.50;;;21.44;85.98
77351;BME280;66420;50.246;14.320;2023-08-20T06:39:38;100057.28;;;21.47;86.38
77351;BME280;66420;50.246;14.320;2023-08-20T06:42:23;100061.09;;;21.58;85.63
77351;BME280;66420;50.246;14.320;2023-08-20T06:45:08;100062.31;;;21.60;86.10
77351;BME280;66420;50.246;14.320;2023-08-20T06:47:53;100060.94;;;21.51;86.08
77351;BME280;66420;50.246;14.320;2023-08-20T06:50:38;100059.63;;;21.45;87.48
77351;BME280;66420;50.246;14.320;2023-08-20T06:53:23;100062.56;;;21.52;86.42
77351;BME280;66420;50.246;14.320;2023-08-20T06:56:08;100066.03;;;21.68;85.70
77351;BME280;66420;50.246;14.320;2023-08-20T06:58:53;100064.91;;;21.73;85.92
77351;BME280;66420;50.246;14.320;2023-08-20T07:01:38;100073.09;;;21.62;85.72
77351;BME280;66420;50.246;14.320;2023-08-20T07:04:23;100071.38;;;21.77;84.11
77351;BME280;66420;50.246;14.320;2023-08-20T07:07:08;100074.38;;;21.91;84.46
77351;BME280;66420;50.246;14.320;2023-08-20T07:09:53;100079.31;;;21.97;84.62
77351;BME280;66420;50.246;14.320;2023-08-20T07:12:38;100079.53;;;21.89;84.66
77351;BME280;66420;50.246;14.320;2023-08-20T07:15:23;100073.47;;;21.83;84.88
77351;BME280;66420;50.246;14.320;2023-08-20T07:18:08;100081.66;;;21.95;84.83
77351;BME280;66420;50.246;14.320;2023-08-20T07:20:53;100085.81;;;22.05;84.23
77351;BME280;66420;50.246;14.320;2023-08-20T07:23:37;100084.31;;;22.11;85.71
77351;BME280;66420;50.246;14.320;2023-08-20T07:26:22;100087.59;;;22.17;84.45
77351;BME280;66420;50.246;14.320;2023-08-20T07:29:08;100082.09;;;22.20;84.17
77351;BME280;66420;50.246;14.320;2023-08-20T07:31:52;100083.00;;;22.28;83.04
77351;BME280;66420;50.246;14.320;2023-08-20T07:34:37;100091.13;;;22.36;82.56
77351;BME280;66420;50.246;14.320;2023-08-20T07:37:22;100089.47;;;22.32;83.46
77351;BME280;66420;50.246;14.320;2023-08-20T07:40:07;100091.75;;;22.26;83.45
77351;BME280;66420;50.246;14.320;2023-08-20T07:42:52;100105.13;;;22.40;82.59
77351;BME280;66420;50.246;14.320;2023-08-20T07:45:36;100101.63;;;22.46;82.28
77351;BME280;66420;50.246;14.320;2023-08-20T07:48:21;100100.16;;;22.56;81.40
77351;BME280;66420;50.246;14.320;2023-08-20T07:51:06;100098.69;;;22.62;81.44
77351;BME280;66420;50.246;14.320;2023-08-20T07:53:51;100102.16;;;22.55;82.91
77351;BME280;66420;50.246;14.320;2023-08-20T07:56:35;100096.28;;;22.64;82.52
77351;BME280;66420;50.246;14.320;2023-08-20T07:59:20;100101.06;;;22.86;81.07
77351;BME280;66420;50.246;14.320;2023-08-20T08:02:05;100099.66;;;23.03;80.12
77351;BME280;66420;50.246;14.320;2023-08-20T08:04:50;100100.25;;;23.19;79.67
77351;BME280;66420;50.246;14.320;2023-08-20T08:07:35;100105.66;;;23.35;80.71
77351;BME280;66420;50.246;14.320;2023-08-20T08:10:19;100094.69;;;23.49;80.10
77351;BME280;66420;50.246;14.320;2023-08-20T08:13:04;100095.19;;;23.62;79.23
77351;BME280;66420;50.246;14.320;2023-08-20T08:15:50;100091.72;;;23.72;79.16
77351;BME280;66420;50.246;14.320;2023-08-20T08:18:35;100104.41;;;23.62;80.57
77351;BME280;66420;50.246;14.320;2023-08-20T08:21:19;100108.13;;;23.73;78.96
77351;BME280;66420;50.246;14.320;2023-08-20T08:24:04;100107.78;;;23.78;79.05
77351;BME280;66420;50.246;14.320;2023-08-20T08:26:49;100118.56;;;23.80;78.31
77351;BME280;66420;50.246;14.320;2023-08-20T08:29:34;100130.47;;;23.73;79.00
77351;BME280;66420;50.246;14.320;2023-08-20T08:32:18;100116.91;;;23.75;78.37
77351;BME280;66420;50.246;14.320;2023-08-20T08:35:03;100125.63;;;23.70;78.53
77351;BME280;66420;50.246;14.320;2023-08-20T08:37:48;100117.75;;;23.79;77.24
77351;BME280;66420;50.246;14.320;2023-08-20T08:40:33;100121.88;;;23.93;77.78
77351;BME280;66420;50.246;14.320;2023-08-20T08:43:18;100117.19;;;24.04;75.00
77351;BME280;66420;50.246;14.320;2023-08-20T08:46:14;100125.75;;;24.18;73.96
77351;BME280;66420;50.246;14.320;2023-08-20T08:48:59;100122.97;;;24.21;72.90
77351;BME280;66420;50.246;14.320;2023-08-20T08:51:44;100121.13;;;24.40;73.27
77351;BME280;66420;50.246;14.320;2023-08-20T08:54:30;100122.41;;;24.53;72.85
77351;BME280;66420;50.246;14.320;2023-08-20T08:57:16;100126.94;;;24.71;71.95
77351;BME280;66420;50.246;14.320;2023-08-20T09:00:02;100130.75;;;25.04;70.66
77351;BME280;66420;50.246;14.320;2023-08-20T09:02:47;100118.03;;;25.17;69.67
77351;BME280;66420;50.246;14.320;2023-08-20T09:05:32;100122.44;;;25.14;70.42
77351;BME280;66420;50.246;14.320;2023-08-20T09:08:26;100121.19;;;25.12;68.79
77351;BME280;66420;50.246;14.320;2023-08-20T09:11:12;100133.22;;;25.12;70.05
77351;BME280;66420;50.246;14.320;2023-08-20T09:13:56;100128.53;;;25.34;69.68
77351;BME280;66420;50.246;14.320;2023-08-20T09:16:41;100131.47;;;25.73;68.38
77351;BME280;66420;50.246;14.320;2023-08-20T09:19:35;100130.31;;;26.13;67.15
77351;BME280;66420;50.246;14.320;2023-08-20T09:22:20;100136.41;;;26.43;65.32
77351;BME280;66420;50.246;14.320;2023-08-20T09:25:05;100134.75;;;26.88;63.52
77351;BME280;66420;50.246;14.320;2023-08-20T09:27:50;100139.09;;;27.11;63.52
77351;BME280;66420;50.246;14.320;2023-08-20T09:30:35;100131.53;;;26.94;62.21
77351;BME280;66420;50.246;14.320;2023-08-20T09:33:20;100144.00;;;26.89;61.97
77351;BME280;66420;50.246;14.320;2023-08-20T09:36:04;100140.78;;;26.94;63.00
77351;BME280;66420;50.246;14.320;2023-08-20T09:38:51;100133.16;;;26.87;63.56
77351;BME280;66420;50.246;14.320;2023-08-20T09:41:36;100127.09;;;26.82;63.51
77351;BME280;66420;50.246;14.320;2023-08-20T09:44:23;100127.09;;;26.82;61.67
77351;BME280;66420;50.246;14.320;2023-08-20T09:47:11;100138.34;;;26.96;63.85
77351;BME280;66420;50.246;14.320;2023-08-20T09:49:56;100132.97;;;27.37;62.43
77351;BME280;66420;50.246;14.320;2023-08-20T09:52:59;100131.19;;;27.78;58.75
77351;BME280;66420;50.246;14.320;2023-08-20T09:55:46;100137.09;;;27.98;58.36
77351;BME280;66420;50.246;14.320;2023-08-20T09:58:31;100124.09;;;28.22;56.41
77351;BME280;66420;50.246;14.320;2023-08-20T10:01:16;100126.50;;;28.20;56.31
77351;BME280;66420;50.246;14.320;2023-08-20T10:04:02;100126.22;;;28.52;57.75
77351;BME280;66420;50.246;14.320;2023-08-20T10:06:47;100130.63;;;28.56;54.53
77351;BME280;66420;50.246;14.320;2023-08-20T10:09:32;100122.94;;;28.60;55.71
77351;BME280;66420;50.246;14.320;2023-08-20T10:12:18;100123.31;;;29.03;57.01
77351;BME280;66420;50.246;14.320;2023-08-20T10:15:03;100111.03;;;29.21;55.57
77351;BME280;66420;50.246;14.320;2023-08-20T10:17:49;100109.34;;;29.30;54.54
77351;BME280;66420;50.246;14.320;2023-08-20T10:20:34;100104.88;;;29.29;54.66
77351;BME280;66420;50.246;14.320;2023-08-20T10:23:22;100114.38;;;29.46;53.52
77351;BME280;66420;50.246;14.320;2023-08-20T10:26:10;100116.03;;;29.10;54.26
77351;BME280;66420;50.246;14.320;2023-08-20T10:32:17;100120.34;;;28.80;56.52
77351;BME280;66420;50.246;14.320;2023-08-20T10:35:03;100116.31;;;29.19;54.81
77351;BME280;66420;50.246;14.320;2023-08-20T10:38:07;100117.47;;;29.55;55.81
77351;BME280;66420;50.246;14.320;2023-08-20T10:40:57;100112.94;;;29.61;54.64
77351;BME280;66420;50.246;14.320;2023-08-20T10:43:49;100115.50;;;29.52;54.46
77351;BME280;66420;50.246;14.320;2023-08-20T10:46:49;100114.50;;;29.66;52.50
77351;BME280;66420;50.246;14.320;2023-08-20T10:49:36;100105.81;;;29.80;52.17
77351;BME280;66420;50.246;14.320;2023-08-20T10:52:23;100101.19;;;29.97;52.76
77351;BME280;66420;50.246;14.320;2023-08-20T10:55:08;100096.78;;;30.19;51.70
77351;BME280;66420;50.246;14.320;2023-08-20T10:57:56;100096.41;;;30.40;52.45
77351;BME280;66420;50.246;14.320;2023-08-20T11:00:42;100091.75;;;30.30;52.22
77351;BME280;66420;50.246;14.320;2023-08-20T11:03:28;100093.06;;;29.99;51.16
77351;BME280;66420;50.246;14.320;2023-08-20T11:06:12;100094.56;;;30.07;52.01
77351;BME280;66420;50.246;14.320;2023-08-20T11:08:58;100094.47;;;30.37;51.07
77351;BME280;66420;50.246;14.320;2023-08-20T11:11:43;100095.56;;;30.66;51.42
77351;BME280;66420;50.246;14.320;2023-08-20T11:14:28;100091.88;;;30.69;49.14
77351;BME280;66420;50.246;14.320;2023-08-20T11:17:13;100091.97;;;30.66;51.08
77351;BME280;66420;50.246;14.320;2023-08-20T11:19:59;100091.22;;;30.62;49.73
77351;BME280;66420;50.246;14.320;2023-08-20T11:22:44;100092.19;;;30.75;50.14
77351;BME280;66420;50.246;14.320;2023-08-20T11:25:29;100080.78;;;31.02;49.90
77351;BME280;66420;50.246;14.320;2023-08-20T11:28:13;100080.50;;;31.16;47.65
77351;BME280;66420;50.246;14.320;2023-08-20T11:30:58;100066.56;;;31.25;50.84
77351;BME280;66420;50.246;14.320;2023-08-20T11:33:45;100073.16;;;31.38;48.63
77351;BME280;66420;50.246;14.320;2023-08-20T11:36:31;100071.81;;;31.07;47.48
77351;BME280;66420;50.246;14.320;2023-08-20T11:39:15;100065.09;;;31.17;48.54
77351;BME280;66420;50.246;14.320;2023-08-20T11:42:01;100070.97;;;31.26;50.36
77351;BME280;66420;50.246;14.320;2023-08-20T11:44:46;100069.09;;;31.19;46.93
77351;BME280;66420;50.246;14.320;2023-08-20T11:47:38;100067.78;;;31.44;47.59
77351;BME280;66420;50.246;14.320;2023-08-20T11:50:24;100069.16;;;31.72;47.62
77351;BME280;66420;50.246;14.320;2023-08-20T11:53:09;100069.56;;;31.90;45.41
77351;BME280;66420;50.246;14.320;2023-08-20T11:55:55;100069.63;;;31.70;45.71
77351;BME280;66420;50.246;14.320;2023-08-20T11:58:39;100065.09;;;31.56;44.52
77351;BME280;66420;50.246;14.320;2023-08-20T12:01:24;100060.75;;;31.68;46.84
77351;BME280;66420;50.246;14.320;2023-08-20T12:04:10;100060.41;;;31.66;46.92
77351;BME280;66420;50.246;14.320;2023-08-20T12:07:08;100065.28;;;31.82;46.40
77351;BME280;66420;50.246;14.320;2023-08-20T12:09:54;100057.16;;;32.00;46.47
77351;BME280;66420;50.246;14.320;2023-08-20T12:12:39;100051.16;;;31.98;46.42
77351;BME280;66420;50.246;14.320;2023-08-20T12:15:25;100044.28;;;32.15;45.05
77351;BME280;66420;50.246;14.320;2023-08-20T12:18:09;100046.38;;;32.27;43.28
77351;BME280;66420;50.246;14.320;2023-08-20T12:20:54;100050.97;;;32.37;44.45
77351;BME280;66420;50.246;14.320;2023-08-20T12:23:39;100043.22;;;32.25;44.17
77351;BME280;66420;50.246;14.320;2023-08-20T12:26:24;100030.19;;;32.28;45.10
77351;BME280;66420;50.246;14.320;2023-08-20T12:29:09;100019.66;;;32.28;45.02
77351;BME280;66420;50.246;14.320;2023-08-20T12:31:54;100020.91;;;32.11;46.62
77351;BME280;66420;50.246;14.320;2023-08-20T12:34:38;100014.19;;;32.21;45.38
77351;BME280;66420;50.246;14.320;2023-08-20T12:37:23;100017.69;;;32.09;44.90
77351;BME280;66420;50.246;14.320;2023-08-20T12:40:08;100017.19;;;31.98;45.96
77351;BME280;66420;50.246;14.320;2023-08-20T12:42:55;100008.16;;;31.71;47.78
77351;BME280;66420;50.246;14.320;2023-08-20T12:45:39;100009.31;;;31.53;45.78
77351;BME280;66420;50.246;14.320;2023-08-20T12:48:24;100009.72;;;31.72;45.63
77351;BME280;66420;50.246;14.320;2023-08-20T12:51:09;100001.59;;;31.57;44.33
77351;BME280;66420;50.246;14.320;2023-08-20T12:53:58;99994.88;;;31.67;46.42
77351;BME280;66420;50.246;14.320;2023-08-20T12:56:43;99994.88;;;31.67;47.84
77351;BME280;66420;50.246;14.320;2023-08-20T12:59:28;99996.44;;;31.52;45.49
77351;BME280;66420;50.246;14.320;2023-08-20T13:02:13;99991.09;;;31.74;46.18
77351;BME280;66420;50.246;14.320;2023-08-20T13:04:58;100002.84;;;31.73;45.68
77351;BME280;66420;50.246;14.320;2023-08-20T13:07:43;99991.50;;;31.56;47.25
77351;BME280;66420;50.246;14.320;2023-08-20T13:10:28;99994.44;;;31.69;48.79
77351;BME280;66420;50.246;14.320;2023-08-20T13:13:13;99989.41;;;31.60;47.25
77351;BME280;66420;50.246;14.320;2023-08-20T13:16:00;99987.06;;;31.39;46.62
77351;BME280;66420;50.246;14.320;2023-08-20T13:18:45;99986.31;;;31.35;48.10
77351;BME280;66420;50.246;14.320;2023-08-20T13:21:31;99996.50;;;31.33;48.07
77351;BME280;66420;50.246;14.320;2023-08-20T13:24:15;100003.97;;;31.23;46.70
77351;BME280;66420;50.246;14.320;2023-08-20T13:27:00;99996.19;;;31.27;46.59
77351;BME280;66420;50.246;14.320;2023-08-20T13:29:46;99990.16;;;31.09;46.99
77351;BME280;66420;50.246;14.320;2023-08-20T13:32:31;99999.28;;;30.97;47.34
77351;BME280;66420;50.246;14.320;2023-08-20T13:35:15;99996.59;;;31.09;50.41
77351;BME280;66420;50.246;14.320;2023-08-20T13:38:00;100001.34;;;31.32;48.78
77351;BME280;66420;50.246;14.320;2023-08-20T13:40:45;99993.31;;;31.66;47.85
77351;BME280;66420;50.246;14.320;2023-08-20T13:43:30;99998.97;;;31.99;47.02
77351;BME280;66420;50.246;14.320;2023-08-20T13:46:15;99983.69;;;32.09;46.43
77351;BME280;66420;50.246;14.320;2023-08-20T13:49:00;99989.84;;;31.91;46.22
77351;BME280;66420;50.246;14.320;2023-08-20T13:51:45;99987.66;;;31.47;47.35
77351;BME280;66420;50.246;14.320;2023-08-20T13:54:30;99990.09;;;31.64;45.99
77351;BME280;66420;50.246;14.320;2023-08-20T13:57:15;99987.06;;;32.04;47.65
77351;BME280;66420;50.246;14.320;2023-08-20T14:00:00;99981.25;;;32.11;45.92
77351;BME280;66420;50.246;14.320;2023-08-20T14:02:44;99973.91;;;32.14;48.01
77351;BME280;66420;50.246;14.320;2023-08-20T14:05:29;99974.59;;;32.18;45.59
77351;BME280;66420;50.246;14.320;2023-08-20T14:08:14;99975.06;;;32.16;46.01
77351;BME280;66420;50.246;14.320;2023-08-20T14:10:59;99974.16;;;32.19;46.28
77351;BME280;66420;50.246;14.320;2023-08-20T14:13:43;99972.13;;;32.20;45.92
77351;BME280;66420;50.246;14.320;2023-08-20T14:16:29;99962.56;;;32.14;47.57
77351;BME280;66420;50.246;14.320;2023-08-20T14:19:14;99952.75;;;32.18;46.37
77351;BME280;66420;50.246;14.320;2023-08-20T14:21:58;99949.56;;;32.00;46.94
77351;BME280;66420;50.246;14.320;2023-08-20T14:24:43;99949.81;;;32.05;47.76
77351;BME280;66420;50.246;14.320;2023-08-20T14:27:28;99941.41;;;32.18;45.64
77351;BME280;66420;50.246;14.320;2023-08-20T14:30:13;99944.06;;;32.25;47.42
77351;BME280;66420;50.246;14.320;2023-08-20T14:32:57;99941.41;;;32.18;45.80
77351;BME280;66420;50.246;14.320;2023-08-20T14:35:42;99938.56;;;32.18;45.97
77351;BME280;66420;50.246;14.320;2023-08-20T14:38:31;99938.59;;;32.02;45.90
77351;BME280;66420;50.246;14.320;2023-08-20T14:41:16;99932.19;;;31.85;46.18
77351;BME280;66420;50.246;14.320;2023-08-20T14:44:01;99935.16;;;31.78;47.08
77351;BME280;66420;50.246;14.320;2023-08-20T14:46:46;99928.22;;;31.66;46.79
77351;BME280;66420;50.246;14.320;2023-08-20T14:49:31;99931.22;;;31.76;48.52
77351;BME280;66420;50.246;14.320;2023-08-20T14:52:16;99932.44;;;31.58;47.70
77351;BME280;66420;50.246;14.320;2023-08-20T14:55:01;99925.53;;;31.43;46.71
77351;BME280;66420;50.246;14.320;2023-08-20T14:57:46;99926.84;;;31.55;46.76
77351;BME280;66420;50.246;14.320;2023-08-20T15:00:34;99929.06;;;31.63;47.58
77351;BME280;66420;50.246;14.320;2023-08-20T15:03:19;99927.66;;;31.72;46.32
77351;BME280;66420;50.246;14.320;2023-08-20T15:06:04;99928.81;;;31.74;46.73
77351;BME280;66420;50.246;14.320;2023-08-20T15:08:49;99930.13;;;31.70;45.82
77351;BME280;66420;50.246;14.320;2023-08-20T15:11:35;99924.66;;;31.62;47.59
77351;BME280;66420;50.246;14.320;2023-08-20T15:14:19;99931.69;;;31.54;47.06
77351;BME280;66420;50.246;14.320;2023-08-20T15:17:04;99937.69;;;31.40;47.66
77351;BME280;66420;50.246;14.320;2023-08-20T15:19:48;99941.59;;;31.46;49.12
77351;BME280;66420;50.246;14.320;2023-08-20T15:22:33;99938.59;;;31.37;47.55
77351;BME280;66420;50.246;14.320;2023-08-20T15:25:18;99935.41;;;31.35;47.95
77351;BME280;66420;50.246;14.320;2023-08-20T15:28:03;99941.78;;;31.39;47.03
77351;BME280;66420;50.246;14.320;2023-08-20T15:30:48;99939.13;;;31.32;47.15
77351;BME280;66420;50.246;14.320;2023-08-20T15:33:33;99930.09;;;31.21;47.87
77351;BME280;66420;50.246;14.320;2023-08-20T15:36:17;99931.06;;;31.14;47.64
77351;BME280;66420;50.246;14.320;2023-08-20T15:39:02;99936.50;;;31.05;47.85
77351;BME280;66420;50.246;14.320;2023-08-20T15:41:47;99932.38;;;30.90;48.21
77351;BME280;66420;50.246;14.320;2023-08-20T15:44:32;99933.41;;;30.80;48.15
77351;BME280;66420;50.246;14.320;2023-08-20T15:47:17;99932.75;;;30.72;49.03
77351;BME280;66420;50.246;14.320;2023-08-20T15:50:02;99932.97;;;30.62;48.92
77351;BME280;66420;50.246;14.320;2023-08-20T15:52:47;99935.53;;;30.56;48.85
77351;BME280;66420;50.246;14.320;2023-08-20T15:55:32;99933.13;;;30.55;49.98
77351;BME280;66420;50.246;14.320;2023-08-20T15:58:17;99924.81;;;30.48;48.79
77351;BME280;66420;50.246;14.320;2023-08-20T16:01:02;99924.50;;;30.42;49.26
77351;BME280;66420;50.246;14.320;2023-08-20T16:03:47;99915.81;;;30.33;49.81
77351;BME280;66420;50.246;14.320;2023-08-20T16:06:31;99923.34;;;30.20;50.25
77351;BME280;66420;50.246;14.320;2023-08-20T16:09:16;99920.31;;;30.07;50.69
77351;BME280;66420;50.246;14.320;2023-08-20T16:12:01;99922.06;;;30.01;50.58
77351;BME280;66420;50.246;14.320;2023-08-20T16:14:47;99921.84;;;29.92;50.93
77351;BME280;66420;50.246;14.320;2023-08-20T16:17:31;99916.22;;;29.88;51.18
77351;BME280;66420;50.246;14.320;2023-08-20T16:20:16;99914.75;;;29.80;52.21
77351;BME280;66420;50.246;14.320;2023-08-20T16:23:01;99919.66;;;29.76;52.05
77351;BME280;66420;50.246;14.320;2023-08-20T16:25:45;99917.72;;;29.73;52.20
77351;BME280;66420;50.246;14.320;2023-08-20T16:28:31;99921.44;;;29.67;53.24
77351;BME280;66420;50.246;14.320;2023-08-20T16:31:15;99924.44;;;29.56;52.77
77351;BME280;66420;50.246;14.320;2023-08-20T16:34:00;99919.72;;;29.49;53.38
77351;BME280;66420;50.246;14.320;2023-08-20T16:36:45;99927.25;;;29.33;53.74
77351;BME280;66420;50.246;14.320;2023-08-20T16:39:29;99921.00;;;29.18;54.06
77351;BME280;66420;50.246;14.320;2023-08-20T16:42:14;99922.75;;;29.08;54.19
77351;BME280;66420;50.246;14.320;2023-08-20T16:44:59;99928.13;;;28.99;54.91
77351;BME280;66420;50.246;14.320;2023-08-20T16:47:44;99926.50;;;28.98;53.93
77351;BME280;66420;50.246;14.320;2023-08-20T16:50:29;99925.38;;;28.92;54.86
77351;BME280;66420;50.246;14.320;2023-08-20T16:53:14;99917.72;;;28.93;55.39
77351;BME280;66420;50.246;14.320;2023-08-20T16:56:01;99922.94;;;28.94;58.20
77351;BME280;66420;50.246;14.320;2023-08-20T16:58:45;99929.06;;;28.89;55.96
77351;BME280;66420;50.246;14.320;2023-08-20T17:01:30;99925.53;;;28.82;56.48
77351;BME280;66420;50.246;14.320;2023-08-20T17:04:16;99933.66;;;28.76;56.01
77351;BME280;66420;50.246;14.320;2023-08-20T17:07:01;99926.50;;;28.68;55.55
77351;BME280;66420;50.246;14.320;2023-08-20T17:09:45;99929.03;;;28.59;55.68
77351;BME280;66420;50.246;14.320;2023-08-20T17:12:31;99922.78;;;28.44;56.03
77351;BME280;66420;50.246;14.320;2023-08-20T17:15:16;99923.28;;;28.36;56.75
77351;BME280;66420;50.246;14.320;2023-08-20T17:18:01;99922.94;;;28.30;57.24
77351;BME280;66420;50.246;14.320;2023-08-20T17:20:46;99938.31;;;28.22;57.53
77351;BME280;66420;50.246;14.320;2023-08-20T17:23:31;99935.16;;;28.16;57.75
77351;BME280;66420;50.246;14.320;2023-08-20T17:26:16;99931.13;;;28.17;58.39
77351;BME280;66420;50.246;14.320;2023-08-20T17:29:01;99942.38;;;28.17;59.17
77351;BME280;66420;50.246;14.320;2023-08-20T17:31:46;99935.94;;;28.17;58.88
77351;BME280;66420;50.246;14.320;2023-08-20T17:34:31;99938.41;;;28.11;59.90
77351;BME280;66420;50.246;14.320;2023-08-20T17:37:17;99935.19;;;28.09;62.45
77351;BME280;66420;50.246;14.320;2023-08-20T17:40:05;99940.06;;;28.05;61.17
77351;BME280;66420;50.246;14.320;2023-08-20T17:42:53;99930.03;;;28.01;61.33
77351;BME280;66420;50.246;14.320;2023-08-20T17:45:37;99939.38;;;27.94;61.11
77351;BME280;66420;50.246;14.320;2023-08-20T17:48:22;99937.81;;;27.90;59.81
77351;BME280;66420;50.246;14.320;2023-08-20T17:51:07;99942.22;;;27.91;61.69
77351;BME280;66420;50.246;14.320;2023-08-20T17:53:51;99946.25;;;27.90;61.69
77351;BME280;66420;50.246;14.320;2023-08-20T17:56:36;99939.47;;;27.84;62.08
77351;BME280;66420;50.246;14.320;2023-08-20T17:59:21;99939.88;;;27.82;64.16
77351;BME280;66420;50.246;14.320;2023-08-20T18:02:06;99939.09;;;27.78;62.54
77351;BME280;66420;50.246;14.320;2023-08-20T18:04:51;99934.00;;;27.66;62.17
77351;BME280;66420;50.246;14.320;2023-08-20T18:07:36;99940.50;;;27.56;61.72
77351;BME280;66420;50.246;14.320;2023-08-20T18:10:20;99948.13;;;27.55;61.42
77351;BME280;66420;50.246;14.320;2023-08-20T18:13:05;99942.13;;;27.57;62.03
77351;BME280;66420;50.246;14.320;2023-08-20T18:15:52;99943.28;;;27.59;62.56
77351;BME280;66420;50.246;14.320;2023-08-20T18:18:36;99949.78;;;27.53;63.79
77351;BME280;66420;50.246;14.320;2023-08-20T18:21:21;99958.28;;;27.39;63.71
77351;BME280;66420;50.246;14.320;2023-08-20T18:24:06;99956.72;;;27.34;63.31
77351;BME280;66420;50.246;14.320;2023-08-20T18:26:50;99964.75;;;27.36;65.01
77351;BME280;66420;50.246;14.320;2023-08-20T18:29:36;99958.78;;;27.26;65.63
77351;BME280;66420;50.246;14.320;2023-08-20T18:32:20;99963.22;;;27.20;67.16
77351;BME280;66420;50.246;14.320;2023-08-20T18:35:06;99985.38;;;27.08;66.76
77351;BME280;66420;50.246;14.320;2023-08-20T18:37:50;99988.19;;;27.04;65.37
77351;BME280;66420;50.246;14.320;2023-08-20T18:40:35;99994.22;;;27.06;64.83
77351;BME280;66420;50.246;14.320;2023-08-20T18:43:20;100000.25;;;27.08;65.45
77351;BME280;66420;50.246;14.320;2023-08-20T18:46:05;99997.81;;;27.10;65.12
77351;BME280;66420;50.246;14.320;2023-08-20T18:48:50;99998.59;;;27.11;65.43
77351;BME280;66420;50.246;14.320;2023-08-20T18:51:35;100005.88;;;27.01;65.77
77351;BME280;66420;50.246;14.320;2023-08-20T18:54:20;100001.91;;;26.99;64.47
77351;BME280;66420;50.246;14.320;2023-08-20T18:57:05;100004.69;;;27.02;66.29
77351;BME280;66420;50.246;14.320;2023-08-20T18:59:50;100005.16;;;26.90;67.02
77351;BME280;66420;50.246;14.320;2023-08-20T19:02:36;100005.16;;;26.79;67.66
77351;BME280;66420;50.246;14.320;2023-08-20T19:05:20;100001.16;;;26.70;67.32
77351;BME280;66420;50.246;14.320;2023-08-20T19:08:05;100001.59;;;26.61;68.14
77351;BME280;66420;50.246;14.320;2023-08-20T19:10:50;100012.44;;;26.66;66.46